Time;durP1;ratioP1;P1;durP2;ratioP2;P2;SDS_P1;SDS_P2;PMS_P1;PMS_P2;Temp;Humidity;BMP_temperature;BMP_pressure;BME280_temperature;BME280_humidity;BME280_pressure;Samples;Min_cycle;Max_cycle;Signal;HPM_P1;HPM_P2
2023/02/01 00:00:02;;;;;;;17.85;9.30;;;4.00;99.90;;;;;;495811;239;28831;-73
2023/02/01 00:07:20;;;;;;;13.13;7.97;;;4.00;99.90;;;;;;495808;240;27584;-74
2023/02/01 00:09:21;;;;;;;13.43;9.15;;;4.00;99.90;;;;;;495686;239;28005;-74
2023/02/01 00:11:22;;;;;;;15.18;8.57;;;4.00;99.90;;;;;;495818;239;27903;-73
2023/02/01 00:13:23;;;;;;;10.75;7.90;;;4.00;99.90;;;;;;495769;239;27451;-74
2023/02/01 00:15:25;;;;;;;10.95;7.97;;;4.00;99.90;;;;;;495768;239;27526;-73
2023/02/01 00:17:26;;;;;;;10.65;7.40;;;4.00;99.90;;;;;;495818;239;27445;-75
2023/02/01 00:19:27;;;;;;;12.98;7.97;;;4.00;99.90;;;;;;495824;239;27492;-73
2023/02/01 00:21:28;;;;;;;11.50;7.65;;;4.00;99.90;;;;;;495843;239;27444;-77
2023/02/01 00:23:30;;;;;;;12.35;6.90;;;4.10;99.90;;;;;;495817;239;27499;-74
2023/02/01 00:25:31;;;;;;;9.20;7.40;;;4.10;99.90;;;;;;495762;239;27361;-73
2023/02/01 00:27:32;;;;;;;9.43;6.47;;;4.10;99.90;;;;;;495820;239;27994;-77
2023/02/01 00:29:33;;;;;;;10.10;7.65;;;4.10;99.90;;;;;;495813;239;28037;-77
2023/02/01 00:31:35;;;;;;;16.83;8.30;;;4.10;99.90;;;;;;495797;239;29141;-74
2023/02/01 00:33:36;;;;;;;9.32;6.47;;;4.00;99.90;;;;;;495782;239;27502;-75
2023/02/01 00:35:37;;;;;;;11.95;7.70;;;4.00;99.90;;;;;;495768;239;27439;-74
2023/02/01 00:37:38;;;;;;;16.10;7.93;;;4.10;99.90;;;;;;495807;239;27383;-75
2023/02/01 00:39:40;;;;;;;13.02;7.40;;;4.10;99.90;;;;;;495818;239;27391;-75
2023/02/01 00:41:41;;;;;;;17.62;7.87;;;4.10;99.90;;;;;;495821;239;27436;-75
2023/02/01 00:43:42;;;;;;;8.80;7.20;;;4.10;99.90;;;;;;495836;239;27563;-74
2023/02/01 00:45:43;;;;;;;11.80;7.22;;;4.10;99.90;;;;;;495794;239;27392;-74
2023/02/01 00:47:45;;;;;;;11.05;7.90;;;4.10;99.90;;;;;;495813;239;27488;-75
2023/02/01 00:49:46;;;;;;;11.75;8.50;;;4.10;99.90;;;;;;495852;239;27949;-73
2023/02/01 00:51:47;;;;;;;13.75;8.77;;;4.10;99.90;;;;;;495842;239;28005;-74
2023/02/01 00:53:48;;;;;;;11.60;8.05;;;4.10;99.90;;;;;;495781;239;27492;-73
2023/02/01 00:55:50;;;;;;;15.10;9.35;;;4.10;99.90;;;;;;495816;239;27479;-74
2023/02/01 00:57:51;;;;;;;13.07;9.07;;;4.00;99.90;;;;;;495763;239;27474;-73
2023/02/01 00:59:52;;;;;;;11.63;8.93;;;4.00;99.90;;;;;;495802;239;27811;-75
2023/02/01 01:01:53;;;;;;;12.07;8.75;;;4.00;99.90;;;;;;495809;239;27428;-73
2023/02/01 01:03:55;;;;;;;14.05;9.65;;;4.00;99.90;;;;;;495799;239;27498;-74
2023/02/01 01:05:56;;;;;;;13.00;8.07;;;4.10;99.90;;;;;;495772;239;27357;-73
2023/02/01 01:07:57;;;;;;;11.20;8.02;;;4.00;99.90;;;;;;495780;239;27946;-74
2023/02/01 01:09:58;;;;;;;15.80;8.68;;;4.00;99.90;;;;;;495760;239;28153;-75
2023/02/01 01:12:02;;;;;;;10.70;8.23;;;4.10;99.90;;;;;;495818;239;29094;-75
2023/02/01 01:14:04;;;;;;;21.02;9.27;;;4.00;99.90;;;;;;495841;239;27454;-73
2023/02/01 01:16:05;;;;;;;14.25;9.10;;;4.00;99.90;;;;;;495799;239;27614;-75
2023/02/01 01:18:06;;;;;;;13.05;8.23;;;4.10;99.90;;;;;;495823;239;27344;-74
2023/02/01 01:20:07;;;;;;;14.87;9.02;;;4.10;99.90;;;;;;495796;239;27504;-75
2023/02/01 01:22:09;;;;;;;12.35;8.70;;;4.00;99.90;;;;;;495782;239;27353;-74
2023/02/01 01:24:10;;;;;;;13.65;9.70;;;4.00;99.90;;;;;;495845;239;28084;-74
2023/02/01 01:26:11;;;;;;;17.08;9.88;;;4.00;99.90;;;;;;495852;239;27958;-73
2023/02/01 01:28:12;;;;;;;16.83;9.40;;;4.00;99.90;;;;;;495831;239;27444;-73
2023/02/01 01:30:14;;;;;;;15.98;9.00;;;4.00;99.90;;;;;;495789;240;27476;-73
2023/02/01 01:32:15;;;;;;;16.17;9.45;;;4.10;99.90;;;;;;495816;239;27491;-74
2023/02/01 01:34:16;;;;;;;13.93;9.38;;;4.10;99.90;;;;;;495847;239;27527;-75
2023/02/01 01:36:17;;;;;;;13.77;8.25;;;4.10;99.90;;;;;;495845;239;27632;-74
2023/02/01 01:38:19;;;;;;;17.83;9.32;;;4.00;99.90;;;;;;495753;239;27449;-74
2023/02/01 01:40:20;;;;;;;24.75;10.55;;;4.00;99.90;;;;;;495835;239;27531;-74
2023/02/01 01:42:21;;;;;;;15.50;10.23;;;4.00;99.90;;;;;;495826;239;28765;-74
2023/02/01 01:44:22;;;;;;;17.83;10.10;;;4.00;99.90;;;;;;495874;239;27899;-73
2023/02/01 01:46:24;;;;;;;21.37;10.40;;;4.00;99.90;;;;;;495845;239;27607;-74
2023/02/01 01:48:25;;;;;;;22.58;10.60;;;4.00;99.90;;;;;;495803;239;27437;-74
2023/02/01 01:50:26;;;;;;;19.73;10.05;;;4.00;99.90;;;;;;495836;239;27480;-74
2023/02/01 01:52:27;;;;;;;15.35;9.00;;;4.00;99.90;;;;;;495817;239;27516;-73
2023/02/01 01:54:29;;;;;;;11.20;8.50;;;4.00;99.90;;;;;;495871;239;27601;-73
2023/02/01 01:56:30;;;;;;;20.10;9.73;;;4.00;99.90;;;;;;495855;239;27555;-73
2023/02/01 01:58:31;;;;;;;14.60;8.85;;;4.10;99.90;;;;;;495863;239;28005;-74
2023/02/01 02:00:33;;;;;;;15.48;9.57;;;4.00;99.90;;;;;;495842;239;28010;-75
2023/02/01 02:02:34;;;;;;;16.27;10.80;;;4.00;99.90;;;;;;495875;239;28191;-74
2023/02/01 02:04:35;;;;;;;22.17;11.18;;;4.00;99.90;;;;;;495880;239;27479;-75
2023/02/01 02:06:36;;;;;;;18.12;10.60;;;4.10;99.90;;;;;;495857;239;27524;-75
2023/02/01 02:08:38;;;;;;;26.50;10.60;;;4.00;99.90;;;;;;495858;239;27435;-73
2023/02/01 02:12:58;;;;;;;13.80;8.55;;;4.00;99.90;;;;;;495851;239;27976;-74
2023/02/01 02:15:00;;;;;;;14.02;9.13;;;4.00;99.90;;;;;;495859;239;27888;-74
2023/02/01 02:17:01;;;;;;;13.00;8.35;;;4.00;99.90;;;;;;495644;237;29118;-75
2023/02/01 02:19:02;;;;;;;9.43;6.95;;;4.10;99.90;;;;;;495865;239;27429;-74
2023/02/01 02:21:03;;;;;;;12.40;7.80;;;4.10;99.90;;;;;;495808;239;27453;-74
2023/02/01 02:23:06;;;;;;;14.13;7.43;;;4.10;99.90;;;;;;495820;239;27554;-75
2023/02/01 02:25:06;;;;;;;12.35;8.43;;;4.10;99.90;;;;;;495793;239;27503;-74
2023/02/01 02:27:22;;;;;;;14.40;8.32;;;4.10;99.90;;;;;;495810;239;27522;-74
2023/02/01 02:29:10;;;;;;;14.30;8.15;;;4.10;99.90;;;;;;494826;239;27451;-75
2023/02/01 02:31:10;;;;;;;12.90;8.75;;;4.10;99.90;;;;;;495770;239;27475;-75
2023/02/01 02:33:11;;;;;;;14.85;9.27;;;4.10;99.90;;;;;;495857;239;27976;-75
2023/02/01 02:35:12;;;;;;;10.43;7.30;;;4.10;99.90;;;;;;495804;239;28001;-75
2023/02/01 02:37:13;;;;;;;22.05;9.80;;;4.10;99.90;;;;;;495757;239;27957;-75
2023/02/01 02:39:15;;;;;;;15.43;10.48;;;4.10;99.90;;;;;;495769;239;27443;-75
2023/02/01 02:47:23;;;;;;;19.37;11.48;;;4.10;99.90;;;;;;495832;239;27463;-74
2023/02/01 02:47:59;;;;;;;21.37;10.10;;;4.10;99.90;;;;;;495824;239;27487;-73
2023/02/01 02:54:50;;;;;;;22.85;10.68;;;4.10;99.90;;;;;;479365;246;27497;-75
2023/02/01 03:06:07;;;;;;;19.50;11.10;;;4.20;99.90;;;;;;495743;239;27380;-73
2023/02/01 03:08:09;;;;;;;24.12;11.23;;;4.10;99.90;;;;;;495819;239;27443;-74
2023/02/01 03:10:10;;;;;;;19.60;11.60;;;4.10;99.90;;;;;;495815;239;27527;-75
2023/02/01 03:14:31;;;;;;;26.17;11.73;;;4.20;99.90;;;;;;495784;239;27396;-74
2023/02/01 03:16:32;;;;;;;24.12;11.25;;;4.20;99.90;;;;;;495829;239;27835;-75
2023/02/01 03:18:33;;;;;;;21.15;12.07;;;4.20;99.90;;;;;;495805;239;27471;-75
2023/02/01 03:20:34;;;;;;;30.37;12.30;;;4.20;99.90;;;;;;495785;239;27565;-76
2023/02/01 03:22:36;;;;;;;19.67;10.13;;;4.20;99.90;;;;;;495784;239;27344;-74
2023/02/01 03:24:37;;;;;;;21.33;12.80;;;4.20;99.90;;;;;;495808;239;27937;-75
2023/02/01 03:26:38;;;;;;;18.90;11.80;;;4.20;99.90;;;;;;495805;239;27970;-76
2023/02/01 03:28:39;;;;;;;23.87;13.27;;;4.20;99.90;;;;;;495830;239;27572;-75
2023/02/01 03:30:41;;;;;;;22.73;11.65;;;4.20;99.90;;;;;;495810;239;27578;-75
2023/02/01 03:33:01;;;;;;;24.27;11.95;;;4.20;99.90;;;;;;495793;239;27512;-75
2023/02/01 03:34:58;;;;;;;24.58;11.43;;;4.20;99.90;;;;;;495648;239;27626;-75
2023/02/01 03:37:00;;;;;;;21.83;10.90;;;4.20;99.90;;;;;;495809;239;28002;-75
2023/02/01 03:39:01;;;;;;;18.12;9.55;;;4.20;99.90;;;;;;495786;239;28017;-75
2023/02/01 03:41:02;;;;;;;13.10;8.90;;;4.20;99.90;;;;;;495785;239;28549;-75
2023/02/01 03:43:04;;;;;;;13.57;8.27;;;4.20;99.90;;;;;;495857;239;27537;-77
2023/02/01 03:45:05;;;;;;;17.60;8.27;;;4.20;99.90;;;;;;495798;239;27613;-76
2023/02/01 03:47:07;;;;;;;11.48;8.73;;;4.20;99.90;;;;;;495795;239;27426;-74
2023/02/01 03:49:07;;;;;;;17.12;8.18;;;4.20;99.90;;;;;;495774;239;27404;-74
2023/02/01 03:51:08;;;;;;;17.10;8.45;;;4.20;99.90;;;;;;495871;239;27557;-76
2023/02/01 03:53:10;;;;;;;16.70;9.00;;;4.20;99.90;;;;;;495829;239;27360;-74
2023/02/01 03:55:12;;;;;;;14.40;9.00;;;4.10;99.90;;;;;;495821;239;27400;-74
2023/02/01 03:57:12;;;;;;;22.08;10.23;;;4.20;99.90;;;;;;495752;239;27915;-75
2023/02/01 03:59:14;;;;;;;13.93;9.55;;;4.20;99.90;;;;;;495794;239;28894;-73
2023/02/01 04:01:15;;;;;;;19.62;9.98;;;4.20;99.90;;;;;;495808;239;27381;-76
2023/02/01 04:03:16;;;;;;;16.75;9.80;;;4.20;99.90;;;;;;495840;239;27468;-73
2023/02/01 04:05:17;;;;;;;25.12;10.88;;;4.20;99.90;;;;;;495841;239;27488;-75
2023/02/01 04:07:19;;;;;;;18.67;10.05;;;4.30;99.90;;;;;;495831;239;27499;-73
2023/02/01 04:09:20;;;;;;;18.95;10.13;;;4.30;99.90;;;;;;495810;239;27408;-74
2023/02/01 04:11:21;;;;;;;13.20;8.20;;;4.30;99.90;;;;;;495846;239;27653;-75
2023/02/01 04:13:22;;;;;;;20.55;8.75;;;4.30;99.90;;;;;;495851;239;28001;-73
2023/02/01 04:15:24;;;;;;;20.73;9.70;;;4.30;99.90;;;;;;495816;239;29135;-73
2023/02/01 04:17:25;;;;;;;11.23;8.13;;;4.30;99.90;;;;;;495823;239;27902;-73
2023/02/01 04:19:26;;;;;;;17.45;9.18;;;4.20;99.90;;;;;;495781;239;27421;-75
2023/02/01 04:21:27;;;;;;;14.87;8.32;;;4.30;99.90;;;;;;495862;239;27512;-78
2023/02/01 04:23:29;;;;;;;19.02;9.18;;;4.30;99.90;;;;;;495844;239;27452;-77
2023/02/01 04:25:30;;;;;;;12.50;8.10;;;4.30;99.90;;;;;;495819;239;27547;-78
2023/02/01 04:27:31;;;;;;;8.88;6.85;;;4.30;99.90;;;;;;495822;239;27408;-76
2023/02/01 04:29:32;;;;;;;10.77;6.00;;;4.20;99.90;;;;;;495804;239;27475;-77
2023/02/01 04:31:35;;;;;;;10.60;6.90;;;4.30;99.90;;;;;;495822;239;27488;-78
2023/02/01 04:33:35;;;;;;;14.35;7.18;;;4.30;99.90;;;;;;495763;239;27884;-73
2023/02/01 04:35:36;;;;;;;9.05;7.62;;;4.30;99.90;;;;;;495814;239;27879;-73
2023/02/01 04:37:37;;;;;;;12.60;7.20;;;4.20;99.90;;;;;;495796;239;27542;-76
2023/02/01 04:39:39;;;;;;;9.15;5.80;;;4.20;99.90;;;;;;495799;239;27399;-75
2023/02/01 04:41:40;;;;;;;12.13;7.07;;;4.30;99.90;;;;;;495830;239;27380;-74
2023/02/01 04:43:41;;;;;;;11.05;7.25;;;4.30;99.90;;;;;;495837;239;27380;-73
2023/02/01 04:45:42;;;;;;;13.85;8.40;;;4.30;99.90;;;;;;495809;239;27396;-73
2023/02/01 04:47:44;;;;;;;11.15;7.78;;;4.20;99.90;;;;;;495795;239;27348;-75
2023/02/01 04:49:45;;;;;;;11.57;7.97;;;4.30;99.90;;;;;;495816;239;27380;-74
2023/02/01 04:51:46;;;;;;;9.82;8.00;;;4.30;99.90;;;;;;495834;239;27855;-74
2023/02/01 04:53:47;;;;;;;14.02;8.90;;;4.30;99.90;;;;;;495817;239;27800;-73
2023/02/01 04:55:49;;;;;;;16.55;8.35;;;4.30;99.90;;;;;;495833;239;27978;-74
2023/02/01 04:57:50;;;;;;;18.95;9.50;;;4.30;99.90;;;;;;495788;239;27377;-75
2023/02/01 04:59:51;;;;;;;12.75;8.48;;;4.30;99.90;;;;;;495786;239;27467;-73
2023/02/01 05:01:52;;;;;;;18.27;9.20;;;4.30;99.90;;;;;;495823;239;27388;-74
2023/02/01 05:03:54;;;;;;;23.45;9.80;;;4.30;99.90;;;;;;495819;239;27349;-74
2023/02/01 05:05:55;;;;;;;16.92;8.30;;;4.30;99.90;;;;;;495805;239;27511;-77
2023/02/01 05:07:56;;;;;;;13.32;9.15;;;4.30;99.90;;;;;;495791;239;27511;-72
2023/02/01 05:09:57;;;;;;;12.93;9.13;;;4.30;99.90;;;;;;495777;239;27569;-74
2023/02/01 05:14:18;;;;;;;17.92;8.57;;;4.30;99.90;;;;;;495773;239;27454;-77
2023/02/01 05:16:19;;;;;;;14.73;9.50;;;4.30;99.90;;;;;;495851;239;27436;-77
2023/02/01 05:18:20;;;;;;;18.20;10.05;;;4.30;99.90;;;;;;495787;239;27427;-77
2023/02/01 05:20:22;;;;;;;19.15;10.10;;;4.30;99.90;;;;;;495798;239;27475;-73
2023/02/01 05:22:23;;;;;;;19.83;10.35;;;4.30;99.90;;;;;;495854;239;28141;-75
2023/02/01 05:24:24;;;;;;;26.10;10.98;;;4.30;99.90;;;;;;495840;239;27946;-74
2023/02/01 05:26:26;;;;;;;19.17;10.57;;;4.30;99.90;;;;;;495849;239;27474;-75
2023/02/01 05:28:27;;;;;;;24.33;10.40;;;4.40;99.90;;;;;;495820;239;27365;-74
2023/02/01 05:30:28;;;;;;;18.08;9.80;;;4.40;99.90;;;;;;495849;239;27388;-74
2023/02/01 05:32:29;;;;;;;15.48;8.80;;;4.40;99.90;;;;;;495832;239;27781;-75
2023/02/01 05:34:31;;;;;;;17.05;10.07;;;4.40;99.90;;;;;;495842;239;27444;-75
2023/02/01 05:36:32;;;;;;;19.80;9.85;;;4.40;99.90;;;;;;495834;239;27400;-73
2023/02/01 05:38:33;;;;;;;21.67;10.02;;;4.40;99.90;;;;;;495804;239;27883;-74
2023/02/01 05:40:34;;;;;;;13.85;8.57;;;4.40;99.90;;;;;;495791;239;27878;-74
2023/02/01 05:42:36;;;;;;;19.02;10.00;;;4.40;99.90;;;;;;495837;239;27500;-75
2023/02/01 05:44:37;;;;;;;13.32;7.85;;;4.40;99.90;;;;;;495825;239;27464;-72
2023/02/01 05:46:38;;;;;;;13.70;8.38;;;4.40;99.90;;;;;;495778;239;27384;-75
2023/02/01 05:48:39;;;;;;;15.43;9.05;;;4.40;99.90;;;;;;495767;239;27357;-74
2023/02/01 05:50:41;;;;;;;17.77;8.95;;;4.30;99.90;;;;;;495788;239;27395;-74
2023/02/01 05:52:42;;;;;;;17.73;8.30;;;4.30;99.90;;;;;;495832;239;27416;-77
2023/02/01 05:54:43;;;;;;;17.73;8.82;;;4.30;99.90;;;;;;495805;239;27629;-74
2023/02/01 05:56:44;;;;;;;12.40;7.30;;;4.30;99.90;;;;;;495819;239;27982;-77
2023/02/01 05:58:46;;;;;;;18.10;7.90;;;4.20;99.90;;;;;;495790;239;28912;-75
2023/02/01 06:00:47;;;;;;;13.80;7.22;;;4.10;99.90;;;;;;495783;239;27380;-75
2023/02/01 06:02:48;;;;;;;16.23;7.60;;;4.10;99.90;;;;;;495806;239;27396;-76
2023/02/01 06:04:49;;;;;;;12.43;6.55;;;4.10;99.90;;;;;;495812;239;27381;-75
2023/02/01 06:06:51;;;;;;;15.88;6.70;;;4.00;99.90;;;;;;495830;239;27475;-75
2023/02/01 06:08:52;;;;;;;13.85;6.65;;;3.90;99.90;;;;;;495759;239;27505;-76
2023/02/01 06:10:53;;;;;;;12.25;5.72;;;3.90;99.90;;;;;;495815;239;27478;-76
2023/02/01 06:12:54;;;;;;;19.60;5.97;;;3.90;99.90;;;;;;495851;239;27585;-77
2023/02/01 06:14:56;;;;;;;11.50;5.30;;;3.90;99.90;;;;;;495635;239;27916;-76
2023/02/01 06:16:57;;;;;;;9.85;4.47;;;3.80;99.90;;;;;;495793;239;28007;-76
2023/02/01 06:18:58;;;;;;;6.47;4.25;;;3.90;99.90;;;;;;495807;239;27907;-76
2023/02/01 06:21:02;;;;;;;8.52;3.92;;;3.90;99.90;;;;;;495817;239;27931;-76
2023/02/01 06:23:01;;;;;;;9.27;4.20;;;3.90;99.90;;;;;;495696;239;27595;-76
2023/02/01 06:25:02;;;;;;;8.68;4.45;;;3.90;99.90;;;;;;495808;239;27491;-75
2023/02/01 06:27:03;;;;;;;15.40;4.50;;;3.90;99.90;;;;;;495814;239;27578;-73
2023/02/01 06:29:06;;;;;;;12.18;4.80;;;3.90;99.90;;;;;;495789;239;27436;-75
2023/02/01 06:31:06;;;;;;;11.70;5.57;;;3.90;99.90;;;;;;495644;239;27414;-74
2023/02/01 06:33:07;;;;;;;8.18;5.47;;;3.90;99.90;;;;;;495796;239;27740;-75
2023/02/01 06:35:11;;;;;;;10.85;5.82;;;4.00;99.90;;;;;;495782;239;27464;-74
2023/02/01 06:37:11;;;;;;;10.90;5.95;;;4.00;99.90;;;;;;495648;239;27574;-75
2023/02/01 06:39:15;;;;;;;27.00;7.75;;;4.00;99.90;;;;;;495753;239;27913;-73
2023/02/01 06:41:12;;;;;;;19.15;8.23;;;4.00;99.90;;;;;;495504;239;29142;-76
2023/02/01 06:43:13;;;;;;;16.62;9.68;;;4.00;99.90;;;;;;495858;239;28124;-76
2023/02/01 06:45:14;;;;;;;25.88;9.52;;;4.10;99.90;;;;;;495823;239;27403;-77
2023/02/01 06:47:16;;;;;;;22.23;10.27;;;4.10;99.90;;;;;;495833;239;27507;-78
2023/02/01 06:49:19;;;;;;;22.33;10.63;;;4.10;99.90;;;;;;495829;239;27488;-73
2023/02/01 06:51:18;;;;;;;17.55;9.50;;;4.10;99.90;;;;;;495716;239;27605;-77
2023/02/01 06:53:19;;;;;;;20.85;10.10;;;4.20;99.90;;;;;;495862;239;27575;-74
2023/02/01 06:55:21;;;;;;;25.65;10.50;;;4.20;99.90;;;;;;495843;239;27479;-73
2023/02/01 06:57:22;;;;;;;19.08;9.70;;;4.20;99.90;;;;;;495812;239;27978;-74
2023/02/01 06:59:23;;;;;;;20.02;9.07;;;4.20;99.90;;;;;;495814;239;27893;-73
2023/02/01 07:01:24;;;;;;;18.40;9.30;;;4.20;99.90;;;;;;495787;239;27567;-74
2023/02/01 07:03:26;;;;;;;23.92;9.80;;;4.20;99.90;;;;;;495843;239;27488;-74
2023/02/01 07:05:27;;;;;;;26.55;9.27;;;4.20;99.90;;;;;;495834;239;27463;-74
2023/02/01 07:07:28;;;;;;;25.23;9.20;;;4.20;99.90;;;;;;495841;239;27384;-74
2023/02/01 07:09:29;;;;;;;28.60;9.88;;;4.20;99.90;;;;;;495811;239;27468;-73
2023/02/01 07:11:31;;;;;;;22.90;9.07;;;4.20;99.90;;;;;;495803;239;27511;-74
2023/02/01 07:13:32;;;;;;;16.62;7.95;;;4.20;99.90;;;;;;495794;239;27489;-74
2023/02/01 07:15:33;;;;;;;22.00;7.87;;;4.20;99.90;;;;;;495828;239;27954;-74
2023/02/01 07:17:34;;;;;;;23.77;9.27;;;4.20;99.90;;;;;;495831;239;27976;-75
2023/02/01 07:19:36;;;;;;;21.80;8.93;;;4.20;99.90;;;;;;495831;239;27911;-74
2023/02/01 07:21:37;;;;;;;19.50;8.25;;;4.20;99.90;;;;;;495786;239;27400;-75
2023/02/01 07:23:38;;;;;;;20.92;8.45;;;4.20;99.90;;;;;;495809;239;27461;-77
2023/02/01 07:25:40;;;;;;;22.02;8.65;;;4.30;99.90;;;;;;495814;239;27554;-77
2023/02/01 07:27:41;;;;;;;18.75;7.90;;;4.30;99.90;;;;;;495815;239;27606;-75
2023/02/01 07:29:42;;;;;;;18.98;8.93;;;4.30;99.90;;;;;;495802;239;27554;-74
2023/02/01 07:31:43;;;;;;;22.90;8.30;;;4.20;99.90;;;;;;495804;239;27396;-74
2023/02/01 07:33:45;;;;;;;17.77;8.60;;;4.30;99.90;;;;;;495807;239;27432;-74
2023/02/01 07:35:46;;;;;;;20.17;8.75;;;4.30;99.90;;;;;;495806;239;27932;-75
2023/02/01 07:37:47;;;;;;;14.95;8.70;;;4.30;99.90;;;;;;495813;239;29043;-75
2023/02/01 07:39:48;;;;;;;25.37;9.40;;;4.20;99.90;;;;;;495821;239;27936;-74
2023/02/01 07:41:50;;;;;;;33.92;10.48;;;4.30;99.90;;;;;;495811;239;27391;-75
2023/02/01 07:43:51;;;;;;;31.15;9.30;;;4.30;99.90;;;;;;495813;239;27436;-73
2023/02/01 07:45:52;;;;;;;26.05;8.85;;;4.30;99.90;;;;;;495834;239;27578;-74
2023/02/01 07:47:53;;;;;;;28.35;9.32;;;4.30;99.90;;;;;;495808;239;27499;-75
2023/02/01 07:49:55;;;;;;;19.17;8.70;;;4.30;99.90;;;;;;495802;239;27435;-75
2023/02/01 07:51:56;;;;;;;22.55;9.52;;;4.30;99.90;;;;;;495798;239;27494;-74
2023/02/01 07:53:57;;;;;;;22.23;8.65;;;4.40;99.90;;;;;;495815;239;27889;-73
2023/02/01 07:55:58;;;;;;;19.20;8.93;;;4.30;99.90;;;;;;495838;239;27900;-74
2023/02/01 07:58:00;;;;;;;27.35;8.95;;;4.40;99.90;;;;;;495834;239;29042;-74
2023/02/01 08:02:20;;;;;;;19.02;8.05;;;4.30;99.90;;;;;;495750;239;27478;-73
2023/02/01 08:04:21;;;;;;;21.20;9.45;;;4.40;99.90;;;;;;495749;239;27392;-73
2023/02/01 08:06:23;;;;;;;15.50;8.07;;;4.30;99.90;;;;;;495858;239;27467;-73
2023/02/01 08:08:24;;;;;;;24.48;9.15;;;4.30;99.90;;;;;;495809;239;27400;-77
2023/02/01 08:10:25;;;;;;;29.92;9.48;;;4.30;99.90;;;;;;495788;239;27435;-75
2023/02/01 08:12:26;;;;;;;24.42;9.57;;;4.30;99.90;;;;;;495810;239;27520;-74
2023/02/01 08:14:28;;;;;;;26.15;9.80;;;4.40;99.90;;;;;;495799;239;29274;-74
2023/02/01 08:16:29;;;;;;;23.62;9.27;;;4.30;99.90;;;;;;495807;239;27890;-74
2023/02/01 08:18:30;;;;;;;19.87;8.68;;;4.30;99.90;;;;;;495777;239;27879;-74
2023/02/01 08:20:34;;;;;;;18.02;8.25;;;4.40;99.90;;;;;;495795;239;27506;-73
2023/02/01 08:22:33;;;;;;;19.40;7.95;;;4.40;99.90;;;;;;495672;239;27404;-74
2023/02/01 08:24:34;;;;;;;20.90;8.05;;;4.50;99.90;;;;;;495776;239;27469;-73
2023/02/01 08:26:35;;;;;;;25.20;8.68;;;4.40;99.90;;;;;;495832;239;27543;-74
2023/02/01 08:28:37;;;;;;;17.65;7.72;;;4.40;99.90;;;;;;495814;239;27586;-73
2023/02/01 08:30:38;;;;;;;24.33;7.87;;;4.50;99.90;;;;;;495800;239;27462;-73
2023/02/01 08:32:39;;;;;;;18.55;8.20;;;4.40;99.90;;;;;;495799;239;27840;-74
2023/02/01 08:34:40;;;;;;;21.50;7.20;;;4.50;99.90;;;;;;495796;239;28656;-73
2023/02/01 08:36:42;;;;;;;23.83;7.35;;;4.50;99.90;;;;;;495810;239;28070;-74
2023/02/01 08:38:43;;;;;;;26.77;6.97;;;4.50;99.90;;;;;;495822;239;27426;-74
2023/02/01 08:40:45;;;;;;;18.10;6.80;;;4.50;99.90;;;;;;495799;239;27356;-74
2023/02/01 08:42:51;;;;;;;15.75;5.90;;;4.60;99.90;;;;;;495744;239;27490;-76
2023/02/01 08:44:52;;;;;;;17.70;6.37;;;4.60;99.90;;;;;;495753;239;27392;-76
2023/02/01 08:46:54;;;;;;;18.77;6.35;;;4.70;99.90;;;;;;495820;239;27487;-77
2023/02/01 08:48:55;;;;;;;21.42;6.85;;;4.80;99.90;;;;;;495826;239;28037;-74
2023/02/01 08:50:56;;;;;;;15.60;5.62;;;4.80;99.90;;;;;;495791;239;27368;-75
2023/02/01 08:52:58;;;;;;;21.67;6.55;;;4.90;99.90;;;;;;495681;239;27479;-75
2023/02/01 08:54:59;;;;;;;20.15;6.68;;;4.90;99.90;;;;;;495826;239;27430;-76
2023/02/01 08:57:00;;;;;;;21.62;7.37;;;4.90;99.90;;;;;;495837;239;27423;-73
2023/02/01 08:59:01;;;;;;;23.15;6.95;;;4.90;99.90;;;;;;495799;239;27497;-79
2023/02/01 09:01:03;;;;;;;17.55;5.47;;;4.90;99.90;;;;;;495817;239;27451;-76
2023/02/01 09:03:04;;;;;;;20.62;5.47;;;5.00;99.90;;;;;;495812;239;27860;-76
2023/02/01 09:05:05;;;;;;;20.23;5.93;;;5.00;99.90;;;;;;495790;239;28711;-75
2023/02/01 09:07:06;;;;;;;19.40;5.22;;;5.00;99.90;;;;;;495827;239;27353;-77
2023/02/01 09:09:08;;;;;;;13.62;5.55;;;5.00;99.90;;;;;;495811;239;27498;-76
2023/02/01 09:11:09;;;;;;;23.85;5.95;;;4.90;99.90;;;;;;495806;239;27471;-76
2023/02/01 09:13:10;;;;;;;20.45;5.57;;;4.90;99.90;;;;;;495770;239;27392;-75
2023/02/01 09:15:11;;;;;;;19.30;4.45;;;5.00;99.90;;;;;;495849;239;27436;-76
2023/02/01 09:17:13;;;;;;;31.12;5.68;;;5.00;99.90;;;;;;495838;239;27950;-77
2023/02/01 09:19:14;;;;;;;23.70;5.97;;;5.00;99.90;;;;;;495851;239;27985;-76
2023/02/01 09:21:15;;;;;;;20.08;4.75;;;5.00;99.90;;;;;;495820;239;27449;-76
2023/02/01 09:23:17;;;;;;;22.17;6.00;;;4.90;99.90;;;;;;495795;239;27392;-76
2023/02/01 09:25:18;;;;;;;19.25;5.20;;;4.90;99.90;;;;;;495807;239;27372;-76
2023/02/01 09:27:19;;;;;;;19.62;5.93;;;4.80;99.90;;;;;;495789;239;27355;-77
2023/02/01 09:29:20;;;;;;;21.70;5.07;;;4.80;99.90;;;;;;495803;239;27577;-77
2023/02/01 09:31:22;;;;;;;26.73;6.22;;;4.70;99.90;;;;;;495790;239;27408;-77
2023/02/01 09:33:26;;;;;;;18.12;5.20;;;4.70;99.90;;;;;;495802;239;27887;-76
2023/02/01 09:35:24;;;;;;;18.40;5.10;;;4.70;99.90;;;;;;495698;239;27952;-78
2023/02/01 09:37:25;;;;;;;12.18;4.80;;;4.70;99.90;;;;;;495817;239;27443;-77
2023/02/01 09:39:27;;;;;;;26.15;6.82;;;4.70;99.90;;;;;;495848;239;27528;-77
2023/02/01 09:41:28;;;;;;;28.23;5.32;;;4.70;99.90;;;;;;495750;239;27345;-75
2023/02/01 09:43:29;;;;;;;17.37;4.35;;;4.80;99.90;;;;;;495815;239;27518;-76
2023/02/01 09:45:30;;;;;;;21.92;4.47;;;4.90;99.90;;;;;;495880;239;27566;-77
2023/02/01 09:47:32;;;;;;;19.90;5.15;;;4.90;99.90;;;;;;495863;239;27947;-76
2023/02/01 09:49:33;;;;;;;16.92;4.50;;;4.90;99.90;;;;;;495835;239;27971;-78
2023/02/01 09:51:34;;;;;;;16.60;4.12;;;4.90;99.90;;;;;;495836;239;27459;-77
2023/02/01 09:53:35;;;;;;;21.90;5.03;;;4.90;99.90;;;;;;495824;239;27571;-77
2023/02/01 09:55:37;;;;;;;20.62;5.22;;;4.90;99.90;;;;;;495828;239;27402;-76
2023/02/01 09:57:38;;;;;;;17.35;4.07;;;4.80;99.90;;;;;;495839;239;27451;-75
2023/02/01 09:59:39;;;;;;;12.63;4.82;;;4.80;99.90;;;;;;495842;239;27566;-75
2023/02/01 10:01:41;;;;;;;19.45;4.78;;;4.90;99.90;;;;;;495824;239;27442;-76
2023/02/01 10:03:42;;;;;;;17.92;5.07;;;4.90;99.90;;;;;;495784;239;28747;-76
2023/02/01 10:05:43;;;;;;;19.12;4.95;;;4.90;99.90;;;;;;495795;239;28215;-75
2023/02/01 10:07:44;;;;;;;19.62;5.03;;;4.90;99.90;;;;;;495815;239;27381;-77
2023/02/01 10:09:45;;;;;;;15.57;4.68;;;4.90;99.90;;;;;;495815;239;27384;-77
2023/02/01 10:11:49;;;;;;;17.02;5.22;;;4.90;99.90;;;;;;495805;239;27431;-75
2023/02/01 10:13:51;;;;;;;20.77;5.07;;;4.90;99.90;;;;;;495840;239;27975;-75
2023/02/01 10:15:55;;;;;;;23.25;5.10;;;4.90;99.90;;;;;;495812;239;27470;-76
2023/02/01 10:17:53;;;;;;;14.98;4.97;;;4.90;99.90;;;;;;495652;239;27387;-75
2023/02/01 10:19:54;;;;;;;18.87;5.18;;;4.90;99.90;;;;;;495841;239;27345;-76
2023/02/01 10:21:56;;;;;;;18.73;5.10;;;4.90;99.90;;;;;;495837;239;27531;-76
2023/02/01 10:23:57;;;;;;;17.30;5.43;;;5.00;99.90;;;;;;495837;239;27571;-75
2023/02/01 10:25:58;;;;;;;16.27;4.40;;;5.00;99.90;;;;;;495817;239;27578;-76
2023/02/01 10:28:00;;;;;;;22.58;4.82;;;5.10;99.90;;;;;;495841;239;27523;-78
2023/02/01 10:30:01;;;;;;;18.42;4.57;;;5.00;99.90;;;;;;495803;239;27919;-77
2023/02/01 10:32:02;;;;;;;18.75;4.32;;;5.00;99.90;;;;;;495791;239;27543;-75
2023/02/01 10:34:03;;;;;;;15.43;4.80;;;4.90;99.90;;;;;;495805;239;27477;-76
2023/02/01 10:36:04;;;;;;;21.20;4.35;;;4.90;99.90;;;;;;495817;239;27563;-77
2023/02/01 10:38:06;;;;;;;16.77;3.97;;;4.90;99.90;;;;;;495852;239;27922;-77
2023/02/01 10:40:07;;;;;;;14.75;4.30;;;4.90;99.90;;;;;;495822;239;27357;-77
2023/02/01 10:42:08;;;;;;;15.60;4.10;;;5.00;99.90;;;;;;495842;239;27957;-77
2023/02/01 10:44:09;;;;;;;20.37;4.80;;;5.10;99.90;;;;;;495802;239;27901;-75
2023/02/01 10:46:11;;;;;;;17.20;4.50;;;5.00;99.90;;;;;;495871;239;27480;-75
2023/02/01 10:48:12;;;;;;;19.40;4.60;;;5.00;99.90;;;;;;495865;239;27488;-75
2023/02/01 10:50:15;;;;;;;28.87;5.15;;;5.00;99.90;;;;;;495839;239;27555;-76
2023/02/01 10:52:15;;;;;;;14.15;4.80;;;4.90;99.90;;;;;;495770;239;27399;-76
2023/02/01 10:54:16;;;;;;;21.25;5.10;;;4.90;99.90;;;;;;495833;239;27441;-76
2023/02/01 10:56:17;;;;;;;20.27;4.57;;;5.00;99.90;;;;;;495808;239;28051;-76
2023/02/01 10:58:18;;;;;;;20.20;4.75;;;5.00;99.90;;;;;;495817;239;28149;-77
2023/02/01 11:00:20;;;;;;;18.87;4.85;;;5.00;99.90;;;;;;495863;239;27911;-75
2023/02/01 11:02:21;;;;;;;18.37;4.43;;;5.00;99.90;;;;;;495865;239;27500;-75